Arkadiusz Lewandowski

Scout - Lech
3 Dec 2028
Sunday
Process

Personality

Adaptability (9) Ambition (8) Controversy (8) Loyalty (11) Pressure (9) Professionalism (14) Sportsmanship (3) Temperament (6)

Profile

Coaching Style Democratic
License Continental Pro
Determination 11
Man Management 7
Motivating 10
Discipline 10
Job Satisfaction
100%
Fatigue
0%
Role Scout
Wage 74.5K p/w
Contract 14.03.2029

Performance

Behaviour Good
Training Effectiveness
43%
Player Development
40%
Injury Prevention
25%
Tactical Implementation
50%

Recent Events

Assessed a player now
Attended a recruitment meeting now
Assessed a player now
Assessed a player now
Assessed a player 7d ago
Assessed a player 7d ago
Assessed a player 7d ago
Assessed a player 7d ago

Currently Monitoring

187
Player Club Status Ability Confidence Watched Last Observed Latest Vote
Adam Wharton Crystal Palace Active 167 / 160 40% 5 01.12.2028 -
Giovanni Leoni Lincoln City Active 143 / 148 40% 2 01.12.2028 -
Leny Yoro Preston Active 145 / 156 40% 2 30.11.2028 -
Tobías Ramírez River Plate Active 122 / 132 40% 1 30.11.2028 -
Nicolás Dubersarsky Austin FC Active 145 / 134 40% 2 29.11.2028 -
Lewis Miley Newcastle United Active 160 / 161 40% 1 29.11.2028 -
Agustín Giay Palmeiras Active 138 / 142 40% 1 28.11.2028 -
James McConnell Grimsby Town Active 128 / 133 40% 1 28.11.2028 -
Archie Gray Southampton Active 159 / 155 40% 7 27.11.2028 -
Alfie Devine Preston Active 137 / 127 40% 1 27.11.2028 -
Brooke Norton-Cuffy Hull City Active 146 / 150 40% 5 25.11.2028 -
Caleb Yirenkyi Coventry City Active 156 / 154 40% 5 25.11.2028 -
Jonathan De Irastorza Independiente Active 120 / 136 40% 2 23.11.2028 -
Ignacio Perruzzi San Lorenzo Active 136 / 123 40% 2 22.11.2028 -
Ashley Phillips Colchester United Active 123 / 132 40% 2 22.11.2028 -
Cristhian Mosquera Stoke City Active 160 / 162 40% 3 21.11.2028 -
Matvey Kislyak Lokomotiv Moscow Active 151 / 140 40% 1 21.11.2028 -
Michael Kayode Brentford Active 162 / 158 40% 1 20.11.2028 -
Lewis Hall Newcastle United Active 165 / 159 40% 3 18.11.2028 -
Magnus Bech Riisnæs Odd Active 113 / 130 40% 1 18.11.2028 -
Habib Diarra Sunderland Active 142 / 149 40% 5 15.11.2028 -
Ayden Heaven Portsmouth Active 145 / 152 40% 3 15.11.2028 -
Oscar Fraulo Fulham Active 131 / 135 40% 1 12.11.2028 -
Derek Mazou-Sacko Millwall Active 131 / 128 40% 1 12.11.2028 -
Carlos Baleba Norwich City Active 170 / 159 40% 2 11.11.2028 -
Sergi Domínguez Dinamo Zagreb Active 128 / 132 40% 2 11.11.2028 -
Marco Palestra Everton Active 154 / 151 40% 5 09.11.2028 -
Alfie Gilchrist West Bromwich Albion Active 134 / 143 40% 4 08.11.2028 -
Johan Manzambi Millwall Active 157 / 151 40% 1 08.11.2028 -
Markus Karlsson Hammarby Active 138 / 127 40% 2 04.11.2028 -
Andrey Santos Bolton Wanderers Active 161 / 153 40% 9 03.11.2028 -
Matteo Prati Cagliari Active 144 / 146 40% 3 03.11.2028 -
Ben Nelson Leicester City Active 151 / 147 40% 3 31.10.2028 -
Max Johnston Derby County Active 134 / 135 40% 5 31.10.2028 -
Trey Nyoni Rotherham United Active 142 / 153 40% 2 30.10.2028 -
Timothy Ouma Slavia Prague Active 130 / 132 40% 2 30.10.2028 -
Lucas Sanabria LA Galaxy Active 119 / 130 40% 3 29.10.2028 -
Max Alleyne Bradford City Active 134 / 145 40% 1 29.10.2028 -
Noah Sadiki Southampton Active 148 / 159 40% 2 27.10.2028 -
Terry Devlin Portsmouth Active 130 / 132 40% 1 23.10.2028 -
Hampus Skoglund Hammarby Active 136 / 129 40% 1 23.10.2028 -
Rico Lewis West Bromwich Albion Active 154 / 167 40% 3 22.10.2028 -
Yehor Yarmoliuk Brentford Active 158 / 163 40% 5 20.10.2028 -
Nicolás Romero Minnesota United FC Active 118 / 136 40% 1 18.10.2028 -
Thiago Silvero Vélez Active 121 / 140 40% 2 12.10.2028 -
Camilo Martinez Cortulua Active 123 / 130 40% 1 12.10.2028 -
Breno Bidon Corinthians Active 116 / 136 40% 1 11.10.2028 -
Toby Collyer West Bromwich Albion Active 143 / 147 40% 2 02.10.2028 -
James Bacca La Equidad Active 118 / 128 40% 1 02.10.2028 -
Brahim Traoré Cracovia Active 141 / 131 40% 1 05.09.2028 -
Thiago Silvero Vélez Lost 144 / 126 40% 1 28.08.2028 -
Alex Scott Bournemouth Active 157 / 162 40% 4 02.08.2028 -
Brad Hills Stockport County Active 134 / 126 40% 1 02.08.2028 -
Sydie Peck Swindon Town Active 135 / 139 40% 2 31.07.2028 -
David Ozoh Derby County Active 128 / 134 40% 1 31.07.2028 -
Shea Charles Southampton Active 157 / 152 40% 5 30.07.2028 -
Max Conway Bolton Wanderers Active 137 / 132 40% 2 30.07.2028 -
Jacques Ekomié Wrexham Active 134 / 141 40% 3 26.07.2028 -
Ousmane Diomande Nottingham Forest Active 170 / 162 40% 3 26.07.2028 -
Giorgio Scalvini Atalanta Active 164 / 162 40% 2 25.07.2028 -
Kellen Fisher Norwich City Active 135 / 137 40% 2 25.07.2028 -
Yasin Ayari Middlesbrough Active 153 / 151 40% 4 03.07.2028 -
Jhon Solís Birmingham Active 148 / 142 40% 5 27.06.2028 -
Arsène Kouassi AS Nancy Active 148 / 136 40% 2 27.06.2028 -
Honest Ahanor Atalanta Active 136 / 145 40% 3 24.06.2028 -
Samson Baidoo RC Lens Active 153 / 153 40% 2 24.06.2028 -
Juan Sierra La Equidad Active 120 / 129 40% 1 20.06.2028 -
Diego Coppola Paris FC Active 148 / 156 40% 1 19.06.2028 -
Mariusz Stępiński Korona Active 105 / 120 55% 1 05.06.2028 -
Mihael Mlinarić Zaglebie Active 122 / 115 55% 1 02.06.2028 -
Rodrigo Muniz Fulham Active 142 / 140 40% 1 01.06.2028 -
Neco Williams Wrexham Active 147 / 150 40% 3 26.05.2028 -
Kenny Tete Fulham Active 145 / 148 40% 2 26.05.2028 -
Callum Brittain Middlesbrough Active 134 / 138 40% 2 24.05.2028 -
Nathan Collins Brentford Active 163 / 154 40% 3 22.05.2028 -
André Wolverhampton Active 148 / 148 40% 2 21.05.2028 -
James Justin Leeds United Active 136 / 143 40% 1 20.05.2028 -
Welington Southampton Active 135 / 132 40% 3 19.05.2028 -
Timothy Castagne Stoke City Active 144 / 140 40% 3 18.05.2028 -
Alfie Doughty Millwall Active 131 / 135 40% 1 16.05.2028 -
Yerson Mosquera Wolverhampton Active 133 / 143 40% 1 15.05.2028 -
Bobby Thomas Grimsby Town Active 142 / 140 40% 1 14.05.2028 -
Nuno Tavares Lazio Active 154 / 146 40% 1 11.05.2028 -
Bafodé Diakité Plymouth Argyle Active 146 / 141 40% 1 09.05.2028 -
Max Bird Birmingham Active 147 / 142 40% 1 08.05.2028 -
Calvin Ramsay Bristol Rovers Active 130 / 126 40% 3 07.05.2028 -
Takehiro Tomiyasu Crystal Palace Active 148 / 154 40% 2 04.05.2028 -
Lucas Da Cunha Como Active 154 / 153 40% 1 16.04.2028 -
Florentino Luís Ipswich Town Active 147 / 149 40% 1 16.04.2028 -
Nordi Mukiele Sunderland Active 151 / 144 40% 2 15.04.2028 -
Jayden Bogle Leeds United Active 153 / 146 40% 2 14.04.2028 -
Lamare Bogarde Reading Active 133 / 143 40% 2 13.04.2028 -
Justin Devenny Stoke City Active 132 / 134 40% 1 11.04.2028 -
Ryan Sessegnon Fulham Active 141 / 149 40% 1 11.04.2028 -
Jake O'Brien Everton Active 152 / 149 40% 2 10.04.2028 -
Melvin Bard OGC Nice Active 166 / 156 40% 1 10.04.2028 -
Eivind Helland AC Milan Active 139 / 140 40% 1 09.04.2028 -
Odel Offiah Shrewsbury Town Active 123 / 127 40% 1 07.04.2028 -
Mats Wieffer Brighton Active 157 / 151 40% 1 07.04.2028 -
Tim Iroegbunam Peterborough United Active 132 / 148 40% 1 04.04.2028 -
Ngal'Ayel Mukau LOSC Lille Active 151 / 151 40% 1 02.04.2028 -
Quilindschy Hartman Burnley Active 153 / 153 40% 1 28.03.2028 -
Luciano Juba Bahia Active 135 / 129 40% 1 24.03.2028 -
António Silva Bournemouth Active 161 / 155 40% 1 21.03.2028 -
Bosun Lawal Stoke City Active 127 / 137 40% 1 17.03.2028 -
Karel Spáčil Viktoria Plzen Active 125 / 135 40% 1 12.03.2028 -
Christos Mouzakitis Hull City Active 148 / 142 40% 1 28.02.2028 -
Juanlu Bournemouth Active 151 / 151 40% 1 23.02.2028 -
Kaiki Cruzeiro Active 133 / 138 40% 1 31.01.2028 -
Ethan Pye Stockport County Active 119 / 125 40% 1 17.01.2028 -
Jarrod Bowen West Ham United Active 157 / 153 40% 1 31.12.2027 -
Dijon Kameri Cracovia Active 114 / 117 51% 1 03.06.2027 -
Erik Prekop Gornik Zabrze Active 138 / 125 51% 1 02.06.2027 -
William Rovida Pro Patria Active 111 / 108 40% 4 30.05.2027 -
Itumeleng Grobler Free State Stars Active 109 / 98 40% 3 29.05.2027 -
James Trafford Leeds United Active 136 / 150 40% 2 28.05.2027 -
Valerio Boffelli Cavese Active 94 / 104 40% 1 28.05.2027 -
Killian Cahill Leyton Orient Active 109 / 112 40% 1 25.05.2027 -
Domen Gril Piast Active 119 / 113 40% 4 22.05.2027 -
Will Dennis Milton Keynes Dons Active 105 / 105 40% 4 21.05.2027 -
Jordan Amissah Burton Albion Active 104 / 110 40% 2 21.05.2027 -
Murphy Cooper Plymouth Argyle Active 112 / 117 40% 2 12.05.2027 -
Elia Caprile Cagliari Active 153 / 150 40% 2 09.05.2027 -
Heorhii Yermakov Metalist Active 112 / 115 40% 2 09.05.2027 -
Gianluca Saro Foggia Active 115 / 113 40% 1 05.05.2027 -
Parsa Jafari Zob Ahan Active 121 / 110 40% 1 03.05.2027 -
Filip Marschall Stevenage Active 116 / 119 40% 1 03.05.2027 -
Ilja Tuseev Chelyabinsk Active 94 / 94 40% 2 26.04.2027 -
Samu Maccabi Netanya Active 130 / 112 40% 3 20.04.2027 -
Cesare Galeotti Trapani Active 97 / 102 40% 3 19.04.2027 -
Niccolò Chiorra Casarano Active 115 / 102 40% 2 19.04.2027 -
Nathan Bishop AFC Wimbledon Active 116 / 102 40% 2 18.04.2027 -
Alkalifa Coulibaly Onze Createurs Active 111 / 104 40% 1 14.04.2027 -
Jan Bačkovský Dukla Prague Active 103 / 114 40% 1 14.04.2027 -
Anton Zhylkin Karpaty Active 104 / 107 40% 1 10.04.2027 -
Body Samir ENPPI Active 108 / 117 40% 1 03.04.2027 -
Anthony Patterson Wrexham Active 127 / 136 40% 3 31.03.2027 -
Sławomir Abramowicz Jagiellonia Active 127 / 129 40% 2 27.03.2027 -
Myles Roberts Cambridge United Active 92 / 109 40% 1 24.03.2027 -
Francesco D'Alterio Ternana Active 115 / 104 40% 1 11.03.2027 -
Lukas Jensen Millwall Active 123 / 121 40% 1 09.03.2027 -
Andrii Kozhukhar Veres Active 96 / 109 40% 2 03.03.2027 -
Szymon Weirauch Lechia Active 102 / 111 40% 1 01.03.2027 -
Josh Keeley Luton Town Active 120 / 121 40% 3 25.02.2027 -
Luca Gemello Perugia Active 121 / 107 40% 2 24.02.2027 -
Matteo Sorzi Carpi Active 104 / 102 40% 1 22.02.2027 -
Masoud Hajsafi Padideh Active 89 / 108 40% 1 20.02.2027 -
Sergio Barlocco Trento Active 120 / 105 40% 1 15.02.2027 -
Robin Roefs Sunderland Active 139 / 141 40% 1 09.02.2027 -
Jhon Jhon Zenit Active 130 / 137 40% 1 05.01.2027 -
Alessio Zerbin Frosinone Active 134 / 134 40% 2 30.12.2026 -
Martin Baturina Como Active 140 / 140 40% 1 30.12.2026 -
Willem Geubbels Lecce Active 138 / 132 40% 1 28.12.2026 -
Talles Magno New York City Active 130 / 124 40% 1 26.12.2026 -
Ilyas Ansah Hull City Active 120 / 138 40% 2 24.12.2026 -
Kwadwo Baah Watford Active 139 / 131 40% 1 22.12.2026 -
Dennis Cirkin Queens Park Rangers Active 130 / 128 40% 1 17.12.2026 -
Oston O'runov Persepolis Active 131 / 116 40% 1 16.12.2026 -
Rubens Dinamo Moscow Active 124 / 130 40% 1 16.12.2026 -
Maurits Kjærgaard Red Bull Salzburg Active 122 / 129 40% 1 14.12.2026 -
Che Adams Torino Active 128 / 133 40% 1 13.12.2026 -
Myrto Uzuni Austin FC Active 118 / 125 40% 2 12.12.2026 -
Daniel Karlsbakk Sarpsborg 08 Active 115 / 134 40% 2 08.12.2026 -
Bongani Zungu Ajax Cape Town Active 131 / 134 40% 1 08.12.2026 -
Younes Ebnoutalib Eintracht Frankfurt Active 133 / 125 40% 1 06.12.2026 -
Peter Federico Gornik Zabrze Active 138 / 117 40% 1 05.12.2026 -
Enrico Delprato Parma Active 139 / 141 40% 1 05.12.2026 -
Jens Petter Hauge Bodo/Glimt Active 126 / 132 40% 2 04.12.2026 -
Erik Botheim Viking Active 109 / 121 40% 1 04.12.2026 -
Bénie Traoré New York City Active 122 / 132 40% 1 03.12.2026 -
Petar Stanić Ludogorets Active 130 / 140 40% 1 03.12.2026 -
Bradley Zwane SuperSport United Active 110 / 115 40% 1 02.12.2026 -
Nazar Voloshyn Dynamo Kyiv Active 119 / 127 40% 1 26.11.2026 -
Ola Brynhildsen Rapid Wien Active 135 / 124 40% 1 25.11.2026 -
Kwadwo Duah Ludogorets Active 135 / 120 40% 1 24.11.2026 -
Mehdi Ghayedi Al Nasr Active 128 / 122 40% 1 24.11.2026 -
Yorbe Vertessen Red Bull Salzburg Active 121 / 130 40% 1 22.11.2026 -
Marcelo Allende Mamelodi Sundowns Active 151 / 126 40% 2 21.11.2026 -
Amir Hossein Hosseinzadeh Tractor Active 140 / 132 40% 2 17.11.2026 -
Timo Werner San Jose Earthquakes Active 121 / 123 40% 1 17.11.2026 -
Germán Berterame Inter Miami CF Active 147 / 142 40% 1 16.11.2026 -
Kirill Glebov CSKA Moscow Active 127 / 131 40% 1 15.11.2026 -
David Da Costa Portland Timbers Active 122 / 120 40% 1 08.11.2026 -
Jesus Ferreira Seattle Sounders Active 125 / 121 40% 2 07.11.2026 -
Esequiel Barco Spartak Moscow Active 126 / 131 40% 1 07.11.2026 -
Joaquín Pereyra Minnesota United FC Active 148 / 127 40% 1 09.10.2026 -
Yannick Bright Inter Miami CF Active 112 / 123 40% 1 05.10.2026 -